Kisakata, Japan
Current Conditions -  °F | °C
As of 2:00 PM on Sunday 26 Oct 2014 (Local Time) from RJSY Reporting Station
Few Clouds Few Clouds  
Wind Chill: 21°   Ceiling: Unl
Heat Index: 21°   Visibility: 6mi
Dew Point: 10°   Wind: 5mph
Humidity: 49%   Direction: 280°W
Pressure: 30"   Gusts: NA
Location:  39.22°N, 139.9°E
Report Text: RJSY 260500Z 28004KT 230V340 9999 FEW040 21/10 Q1016
Loading
Personal Weather Stations






























Interactive Weather Map
Tropical Storm Tracking
New forecast layout! Learn more

10-Day Weather Forecast

Advertisements
Track Severe Weather on mobile